sensor_id;sensor_type;location;lat;lon;timestamp;temperature;humidity
44990;DHT22;30723;51.206;3.326;2022-11-12T00:00:49;8.20;99.90
44990;DHT22;30723;51.206;3.326;2022-11-12T00:03:14;8.20;99.90
44990;DHT22;30723;51.206;3.326;2022-11-12T00:05:40;8.20;99.90
44990;DHT22;30723;51.206;3.326;2022-11-12T00:08:06;8.20;99.90
44990;DHT22;30723;51.206;3.326;2022-11-12T00:10:32;8.30;99.90
44990;DHT22;30723;51.206;3.326;2022-11-12T00:12:58;8.20;99.90
44990;DHT22;30723;51.206;3.326;2022-11-12T00:15:24;8.20;99.90
44990;DHT22;30723;51.206;3.326;2022-11-12T00:17:50;8.40;99.90
44990;DHT22;30723;51.206;3.326;2022-11-12T00:20:16;8.30;99.90
44990;DHT22;30723;51.206;3.326;2022-11-12T00:22:42;8.20;99.90
44990;DHT22;30723;51.206;3.326;2022-11-12T00:25:08;8.20;99.90
44990;DHT22;30723;51.206;3.326;2022-11-12T00:27:34;8.20;99.90
44990;DHT22;30723;51.206;3.326;2022-11-12T00:30:00;8.20;99.90
44990;DHT22;30723;51.206;3.326;2022-11-12T00:32:26;8.20;99.90
44990;DHT22;30723;51.206;3.326;2022-11-12T00:34:52;8.10;99.90
44990;DHT22;30723;51.206;3.326;2022-11-12T00:37:18;8.10;99.90
44990;DHT22;30723;51.206;3.326;2022-11-12T00:39:45;8.00;99.90
44990;DHT22;30723;51.206;3.326;2022-11-12T00:42:11;8.00;99.90
44990;DHT22;30723;51.206;3.326;2022-11-12T00:44:37;8.00;99.90
44990;DHT22;30723;51.206;3.326;2022-11-12T00:47:02;7.90;99.90
44990;DHT22;30723;51.206;3.326;2022-11-12T00:49:28;8.00;99.90
44990;DHT22;30723;51.206;3.326;2022-11-12T00:51:54;8.00;99.90
44990;DHT22;30723;51.206;3.326;2022-11-12T00:54:20;7.90;99.90
44990;DHT22;30723;51.206;3.326;2022-11-12T00:56:46;8.00;99.90
44990;DHT22;30723;51.206;3.326;2022-11-12T00:59:13;8.00;99.90
44990;DHT22;30723;51.206;3.326;2022-11-12T01:01:39;8.00;99.90
44990;DHT22;30723;51.206;3.326;2022-11-12T01:04:05;7.90;99.90
44990;DHT22;30723;51.206;3.326;2022-11-12T01:06:31;7.80;99.90
44990;DHT22;30723;51.206;3.326;2022-11-12T01:08:58;7.80;99.90
44990;DHT22;30723;51.206;3.326;2022-11-12T01:11:26;7.80;99.90
44990;DHT22;30723;51.206;3.326;2022-11-12T01:14:00;7.80;99.90
44990;DHT22;30723;51.206;3.326;2022-11-12T01:16:30;7.90;99.90
44990;DHT22;30723;51.206;3.326;2022-11-12T01:18:57;7.80;99.90
44990;DHT22;30723;51.206;3.326;2022-11-12T01:21:25;7.80;99.90
44990;DHT22;30723;51.206;3.326;2022-11-12T01:23:51;7.80;99.90
44990;DHT22;30723;51.206;3.326;2022-11-12T01:26:19;7.90;99.90
44990;DHT22;30723;51.206;3.326;2022-11-12T01:28:45;7.90;99.90
44990;DHT22;30723;51.206;3.326;2022-11-12T01:31:15;8.00;99.90
44990;DHT22;30723;51.206;3.326;2022-11-12T01:33:43;7.90;99.90
44990;DHT22;30723;51.206;3.326;2022-11-12T01:36:10;7.90;99.90
44990;DHT22;30723;51.206;3.326;2022-11-12T01:38:38;7.90;99.90
44990;DHT22;30723;51.206;3.326;2022-11-12T01:41:06;7.90;99.90
44990;DHT22;30723;51.206;3.326;2022-11-12T01:43:32;7.90;99.90
44990;DHT22;30723;51.206;3.326;2022-11-12T01:46:00;7.80;99.90
44990;DHT22;30723;51.206;3.326;2022-11-12T01:50:58;7.70;99.90
44990;DHT22;30723;51.206;3.326;2022-11-12T01:53:26;7.80;99.90
44990;DHT22;30723;51.206;3.326;2022-11-12T01:55:55;7.80;99.90
44990;DHT22;30723;51.206;3.326;2022-11-12T01:58:23;7.80;99.90
44990;DHT22;30723;51.206;3.326;2022-11-12T02:00:50;7.90;99.90
44990;DHT22;30723;51.206;3.326;2022-11-12T02:03:22;7.90;99.90
44990;DHT22;30723;51.206;3.326;2022-11-12T02:05:52;7.80;99.90
44990;DHT22;30723;51.206;3.326;2022-11-12T02:08:20;7.70;99.90
44990;DHT22;30723;51.206;3.326;2022-11-12T02:10:47;7.70;99.90
44990;DHT22;30723;51.206;3.326;2022-11-12T02:13:12;7.70;99.90
44990;DHT22;30723;51.206;3.326;2022-11-12T02:15:57;7.60;99.90
44990;DHT22;30723;51.206;3.326;2022-11-12T02:18:23;7.60;99.90
44990;DHT22;30723;51.206;3.326;2022-11-12T02:20:54;7.60;99.90
44990;DHT22;30723;51.206;3.326;2022-11-12T02:23:21;7.70;99.90
44990;DHT22;30723;51.206;3.326;2022-11-12T02:25:47;7.70;99.90
44990;DHT22;30723;51.206;3.326;2022-11-12T02:28:12;7.80;99.90
44990;DHT22;30723;51.206;3.326;2022-11-12T02:30:42;7.70;99.90
44990;DHT22;30723;51.206;3.326;2022-11-12T02:33:08;7.80;99.90
44990;DHT22;30723;51.206;3.326;2022-11-12T02:35:34;7.80;99.90
44990;DHT22;30723;51.206;3.326;2022-11-12T02:38:00;7.70;99.90
44990;DHT22;30723;51.206;3.326;2022-11-12T02:40:25;7.70;99.90
44990;DHT22;30723;51.206;3.326;2022-11-12T02:42:51;7.70;99.90
44990;DHT22;30723;51.206;3.326;2022-11-12T02:45:17;7.70;99.90
44990;DHT22;30723;51.206;3.326;2022-11-12T02:47:44;7.70;99.90
44990;DHT22;30723;51.206;3.326;2022-11-12T02:50:10;7.70;99.90
44990;DHT22;30723;51.206;3.326;2022-11-12T02:52:36;7.70;99.90
44990;DHT22;30723;51.206;3.326;2022-11-12T02:55:05;7.70;99.90
44990;DHT22;30723;51.206;3.326;2022-11-12T02:57:31;7.70;99.90
44990;DHT22;30723;51.206;3.326;2022-11-12T02:59:57;7.70;99.90
44990;DHT22;30723;51.206;3.326;2022-11-12T03:02:23;7.60;99.90
44990;DHT22;30723;51.206;3.326;2022-11-12T03:04:48;7.60;99.90
44990;DHT22;30723;51.206;3.326;2022-11-12T03:07:14;7.60;99.90
44990;DHT22;30723;51.206;3.326;2022-11-12T03:09:40;7.60;99.90
44990;DHT22;30723;51.206;3.326;2022-11-12T03:12:06;7.60;99.90
44990;DHT22;30723;51.206;3.326;2022-11-12T03:14:31;7.60;99.90
44990;DHT22;30723;51.206;3.326;2022-11-12T03:16:57;7.60;99.90
44990;DHT22;30723;51.206;3.326;2022-11-12T03:19:23;7.60;99.90
44990;DHT22;30723;51.206;3.326;2022-11-12T03:21:49;7.60;99.90
44990;DHT22;30723;51.206;3.326;2022-11-12T03:24:14;7.60;99.90
44990;DHT22;30723;51.206;3.326;2022-11-12T03:26:40;7.60;99.90
44990;DHT22;30723;51.206;3.326;2022-11-12T03:29:06;7.60;99.90
44990;DHT22;30723;51.206;3.326;2022-11-12T03:31:32;7.60;99.90
44990;DHT22;30723;51.206;3.326;2022-11-12T03:33:59;7.60;99.90
44990;DHT22;30723;51.206;3.326;2022-11-12T03:36:25;7.70;99.90
44990;DHT22;30723;51.206;3.326;2022-11-12T03:38:51;7.70;99.90
44990;DHT22;30723;51.206;3.326;2022-11-12T03:41:16;7.60;99.90
44990;DHT22;30723;51.206;3.326;2022-11-12T03:43:42;7.70;99.90
44990;DHT22;30723;51.206;3.326;2022-11-12T03:46:08;7.70;99.90
44990;DHT22;30723;51.206;3.326;2022-11-12T03:48:34;7.60;99.90
44990;DHT22;30723;51.206;3.326;2022-11-12T03:51:00;7.60;99.90
44990;DHT22;30723;51.206;3.326;2022-11-12T03:53:26;7.60;99.90
44990;DHT22;30723;51.206;3.326;2022-11-12T03:55:52;7.60;99.90
44990;DHT22;30723;51.206;3.326;2022-11-12T03:58:17;7.60;99.90
44990;DHT22;30723;51.206;3.326;2022-11-12T04:00:43;7.50;99.90
44990;DHT22;30723;51.206;3.326;2022-11-12T04:03:09;7.50;99.90
44990;DHT22;30723;51.206;3.326;2022-11-12T04:05:35;7.50;99.90
44990;DHT22;30723;51.206;3.326;2022-11-12T04:08:21;7.50;99.90
44990;DHT22;30723;51.206;3.326;2022-11-12T04:11:08;7.50;99.90
44990;DHT22;30723;51.206;3.326;2022-11-12T04:13:35;7.40;99.90
44990;DHT22;30723;51.206;3.326;2022-11-12T04:16:14;7.30;99.90
44990;DHT22;30723;51.206;3.326;2022-11-12T04:19:00;7.10;99.90
44990;DHT22;30723;51.206;3.326;2022-11-12T04:27:25;6.80;99.90
44990;DHT22;30723;51.206;3.326;2022-11-12T04:29:51;6.80;99.90
44990;DHT22;30723;51.206;3.326;2022-11-12T04:32:58;6.80;99.90
44990;DHT22;30723;51.206;3.326;2022-11-12T04:35:26;6.90;99.90
44990;DHT22;30723;51.206;3.326;2022-11-12T04:37:52;6.90;99.90
44990;DHT22;30723;51.206;3.326;2022-11-12T04:40:25;6.90;99.90
44990;DHT22;30723;51.206;3.326;2022-11-12T04:43:15;6.90;99.90
44990;DHT22;30723;51.206;3.326;2022-11-12T04:46:01;7.00;99.90
44990;DHT22;30723;51.206;3.326;2022-11-12T04:48:27;6.90;99.90
44990;DHT22;30723;51.206;3.326;2022-11-12T04:50:58;6.90;99.90
44990;DHT22;30723;51.206;3.326;2022-11-12T04:53:25;6.90;99.90
44990;DHT22;30723;51.206;3.326;2022-11-12T04:55:53;6.80;99.90
44990;DHT22;30723;51.206;3.326;2022-11-12T04:58:19;6.70;99.90
44990;DHT22;30723;51.206;3.326;2022-11-12T05:00:46;6.70;99.90
44990;DHT22;30723;51.206;3.326;2022-11-12T05:03:12;6.70;99.90
44990;DHT22;30723;51.206;3.326;2022-11-12T05:05:37;6.70;99.90
44990;DHT22;30723;51.206;3.326;2022-11-12T05:08:03;6.70;99.90
44990;DHT22;30723;51.206;3.326;2022-11-12T05:10:29;6.60;99.90
44990;DHT22;30723;51.206;3.326;2022-11-12T05:12:55;6.60;99.90
44990;DHT22;30723;51.206;3.326;2022-11-12T05:15:22;6.60;99.90
44990;DHT22;30723;51.206;3.326;2022-11-12T05:17:48;6.60;99.90
44990;DHT22;30723;51.206;3.326;2022-11-12T05:20:14;6.60;99.90
44990;DHT22;30723;51.206;3.326;2022-11-12T05:22:40;6.70;99.90
44990;DHT22;30723;51.206;3.326;2022-11-12T05:25:07;6.70;99.90
44990;DHT22;30723;51.206;3.326;2022-11-12T05:27:33;6.70;99.90
44990;DHT22;30723;51.206;3.326;2022-11-12T05:29:59;6.70;99.90
44990;DHT22;30723;51.206;3.326;2022-11-12T05:32:25;6.70;99.90
44990;DHT22;30723;51.206;3.326;2022-11-12T05:34:51;6.80;99.90
44990;DHT22;30723;51.206;3.326;2022-11-12T05:37:17;6.80;99.90
44990;DHT22;30723;51.206;3.326;2022-11-12T05:39:43;6.90;99.90
44990;DHT22;30723;51.206;3.326;2022-11-12T05:42:09;6.80;99.90
44990;DHT22;30723;51.206;3.326;2022-11-12T05:44:35;6.90;99.90
44990;DHT22;30723;51.206;3.326;2022-11-12T05:47:00;6.90;99.90
44990;DHT22;30723;51.206;3.326;2022-11-12T05:49:26;6.90;99.90
44990;DHT22;30723;51.206;3.326;2022-11-12T05:51:52;7.00;99.90
44990;DHT22;30723;51.206;3.326;2022-11-12T05:54:18;7.10;99.90
44990;DHT22;30723;51.206;3.326;2022-11-12T05:56:44;7.10;99.90
44990;DHT22;30723;51.206;3.326;2022-11-12T05:59:11;7.10;99.90
44990;DHT22;30723;51.206;3.326;2022-11-12T06:01:38;7.10;99.90
44990;DHT22;30723;51.206;3.326;2022-11-12T06:04:12;7.10;99.90
44990;DHT22;30723;51.206;3.326;2022-11-12T06:06:39;7.10;99.90
44990;DHT22;30723;51.206;3.326;2022-11-12T06:09:05;7.00;99.90
44990;DHT22;30723;51.206;3.326;2022-11-12T06:11:32;7.00;99.90
44990;DHT22;30723;51.206;3.326;2022-11-12T06:13:58;7.00;99.90
44990;DHT22;30723;51.206;3.326;2022-11-12T06:16:24;7.00;99.90
44990;DHT22;30723;51.206;3.326;2022-11-12T06:18:49;6.90;99.90
44990;DHT22;30723;51.206;3.326;2022-11-12T06:21:15;6.90;99.90
44990;DHT22;30723;51.206;3.326;2022-11-12T06:23:45;6.80;99.90
44990;DHT22;30723;51.206;3.326;2022-11-12T06:26:11;6.80;99.90
44990;DHT22;30723;51.206;3.326;2022-11-12T06:28:37;6.80;99.90
44990;DHT22;30723;51.206;3.326;2022-11-12T06:31:02;6.80;99.90
44990;DHT22;30723;51.206;3.326;2022-11-12T06:33:28;6.90;99.90
44990;DHT22;30723;51.206;3.326;2022-11-12T06:35:59;6.80;99.90
44990;DHT22;30723;51.206;3.326;2022-11-12T06:38:31;6.80;99.90
44990;DHT22;30723;51.206;3.326;2022-11-12T06:40:57;6.80;99.90
44990;DHT22;30723;51.206;3.326;2022-11-12T06:43:24;6.80;99.90
44990;DHT22;30723;51.206;3.326;2022-11-12T06:45:50;6.80;99.90
44990;DHT22;30723;51.206;3.326;2022-11-12T06:48:16;6.90;99.90
44990;DHT22;30723;51.206;3.326;2022-11-12T06:50:42;7.00;99.90
44990;DHT22;30723;51.206;3.326;2022-11-12T06:53:07;7.00;99.90
44990;DHT22;30723;51.206;3.326;2022-11-12T06:55:33;7.20;99.90
44990;DHT22;30723;51.206;3.326;2022-11-12T06:57:59;7.20;99.90
44990;DHT22;30723;51.206;3.326;2022-11-12T07:00:25;7.20;99.90
44990;DHT22;30723;51.206;3.326;2022-11-12T07:02:50;7.10;99.90
44990;DHT22;30723;51.206;3.326;2022-11-12T07:05:16;7.10;99.90
44990;DHT22;30723;51.206;3.326;2022-11-12T07:07:42;7.10;99.90
44990;DHT22;30723;51.206;3.326;2022-11-12T07:10:08;7.10;99.90
44990;DHT22;30723;51.206;3.326;2022-11-12T07:12:34;7.00;99.90
44990;DHT22;30723;51.206;3.326;2022-11-12T07:14:59;7.00;99.90
44990;DHT22;30723;51.206;3.326;2022-11-12T07:17:25;7.10;99.90
44990;DHT22;30723;51.206;3.326;2022-11-12T07:19:51;7.10;99.90
44990;DHT22;30723;51.206;3.326;2022-11-12T07:22:17;7.20;99.90
44990;DHT22;30723;51.206;3.326;2022-11-12T07:24:42;7.20;99.90
44990;DHT22;30723;51.206;3.326;2022-11-12T07:27:08;7.20;99.90
44990;DHT22;30723;51.206;3.326;2022-11-12T07:29:34;7.30;99.90
44990;DHT22;30723;51.206;3.326;2022-11-12T07:32:00;7.30;99.90
44990;DHT22;30723;51.206;3.326;2022-11-12T07:34:26;7.40;99.90
44990;DHT22;30723;51.206;3.326;2022-11-12T07:36:51;7.30;99.90
44990;DHT22;30723;51.206;3.326;2022-11-12T07:39:17;7.30;99.90
44990;DHT22;30723;51.206;3.326;2022-11-12T07:41:43;7.40;99.90
44990;DHT22;30723;51.206;3.326;2022-11-12T07:44:09;7.50;99.90
44990;DHT22;30723;51.206;3.326;2022-11-12T07:46:34;7.60;99.90
44990;DHT22;30723;51.206;3.326;2022-11-12T07:49:00;7.60;99.90
44990;DHT22;30723;51.206;3.326;2022-11-12T07:51:28;7.60;99.90
44990;DHT22;30723;51.206;3.326;2022-11-12T07:53:56;7.70;99.90
44990;DHT22;30723;51.206;3.326;2022-11-12T07:56:24;7.80;99.90
44990;DHT22;30723;51.206;3.326;2022-11-12T07:58:50;7.80;99.90
44990;DHT22;30723;51.206;3.326;2022-11-12T08:01:31;7.80;99.90
44990;DHT22;30723;51.206;3.326;2022-11-12T08:03:58;7.80;99.90
44990;DHT22;30723;51.206;3.326;2022-11-12T08:06:25;7.90;99.90
44990;DHT22;30723;51.206;3.326;2022-11-12T08:08:52;7.90;99.90
44990;DHT22;30723;51.206;3.326;2022-11-12T08:11:18;8.00;99.90
44990;DHT22;30723;51.206;3.326;2022-11-12T08:13:44;8.00;99.90
44990;DHT22;30723;51.206;3.326;2022-11-12T08:16:10;8.10;99.90
44990;DHT22;30723;51.206;3.326;2022-11-12T08:18:36;8.10;99.90
44990;DHT22;30723;51.206;3.326;2022-11-12T08:21:04;8.10;99.90
44990;DHT22;30723;51.206;3.326;2022-11-12T08:23:30;8.20;99.90
44990;DHT22;30723;51.206;3.326;2022-11-12T08:26:00;8.20;99.90
44990;DHT22;30723;51.206;3.326;2022-11-12T08:28:31;8.30;99.90
44990;DHT22;30723;51.206;3.326;2022-11-12T08:31:02;8.30;99.90
44990;DHT22;30723;51.206;3.326;2022-11-12T08:33:29;8.40;99.90
44990;DHT22;30723;51.206;3.326;2022-11-12T08:35:55;8.50;99.90
44990;DHT22;30723;51.206;3.326;2022-11-12T08:38:20;8.50;99.90
44990;DHT22;30723;51.206;3.326;2022-11-12T08:40:46;8.60;99.90
44990;DHT22;30723;51.206;3.326;2022-11-12T08:43:12;8.60;99.90
44990;DHT22;30723;51.206;3.326;2022-11-12T08:45:39;8.70;99.90
44990;DHT22;30723;51.206;3.326;2022-11-12T08:48:08;8.80;99.90
44990;DHT22;30723;51.206;3.326;2022-11-12T08:50:35;8.80;99.90
44990;DHT22;30723;51.206;3.326;2022-11-12T08:53:02;8.90;99.90
44990;DHT22;30723;51.206;3.326;2022-11-12T08:55:30;8.90;99.90
44990;DHT22;30723;51.206;3.326;2022-11-12T08:57:56;9.10;99.90
44990;DHT22;30723;51.206;3.326;2022-11-12T09:00:31;9.20;99.90
44990;DHT22;30723;51.206;3.326;2022-11-12T09:03:01;9.20;99.90
44990;DHT22;30723;51.206;3.326;2022-11-12T09:05:27;9.20;99.90
44990;DHT22;30723;51.206;3.326;2022-11-12T09:07:57;9.30;99.90
44990;DHT22;30723;51.206;3.326;2022-11-12T09:10:23;9.30;99.90
44990;DHT22;30723;51.206;3.326;2022-11-12T09:12:51;9.40;99.90
44990;DHT22;30723;51.206;3.326;2022-11-12T09:15:18;9.40;99.90
44990;DHT22;30723;51.206;3.326;2022-11-12T09:17:44;9.50;99.90
44990;DHT22;30723;51.206;3.326;2022-11-12T09:20:10;9.40;99.90
44990;DHT22;30723;51.206;3.326;2022-11-12T09:22:35;9.50;99.90
44990;DHT22;30723;51.206;3.326;2022-11-12T09:25:01;9.60;99.90
44990;DHT22;30723;51.206;3.326;2022-11-12T09:27:28;9.60;99.90
44990;DHT22;30723;51.206;3.326;2022-11-12T09:29:53;9.70;99.90
44990;DHT22;30723;51.206;3.326;2022-11-12T09:32:19;9.70;99.90
44990;DHT22;30723;51.206;3.326;2022-11-12T09:34:45;9.80;99.90
44990;DHT22;30723;51.206;3.326;2022-11-12T09:37:11;9.80;99.90
44990;DHT22;30723;51.206;3.326;2022-11-12T09:39:36;9.90;99.90
44990;DHT22;30723;51.206;3.326;2022-11-12T09:42:12;10.00;99.90
44990;DHT22;30723;51.206;3.326;2022-11-12T09:44:41;10.00;99.90
44990;DHT22;30723;51.206;3.326;2022-11-12T09:47:40;10.20;99.90
44990;DHT22;30723;51.206;3.326;2022-11-12T09:52:47;10.40;99.90
44990;DHT22;30723;51.206;3.326;2022-11-12T09:57:43;10.50;99.90
44990;DHT22;30723;51.206;3.326;2022-11-12T10:00:17;10.60;99.90
44990;DHT22;30723;51.206;3.326;2022-11-12T10:02:59;10.70;99.90
44990;DHT22;30723;51.206;3.326;2022-11-12T10:17:15;13.70;99.90
44990;DHT22;30723;51.206;3.326;2022-11-12T10:25:35;17.20;99.90
44990;DHT22;30723;51.206;3.326;2022-11-12T10:28:09;17.90;99.90
44990;DHT22;30723;51.206;3.326;2022-11-12T10:30:39;18.10;99.90
44990;DHT22;30723;51.206;3.326;2022-11-12T10:33:13;18.30;99.90
44990;DHT22;30723;51.206;3.326;2022-11-12T10:35:39;19.20;99.90
44990;DHT22;30723;51.206;3.326;2022-11-12T10:38:10;20.20;99.90
44990;DHT22;30723;51.206;3.326;2022-11-12T10:40:38;20.70;99.90
44990;DHT22;30723;51.206;3.326;2022-11-12T10:45:43;22.40;99.90
44990;DHT22;30723;51.206;3.326;2022-11-12T10:48:41;23.00;99.90
44990;DHT22;30723;51.206;3.326;2022-11-12T10:51:31;23.40;99.90
44990;DHT22;30723;51.206;3.326;2022-11-12T10:53:57;23.50;99.90
44990;DHT22;30723;51.206;3.326;2022-11-12T10:56:26;24.10;99.90
44990;DHT22;30723;51.206;3.326;2022-11-12T10:59:08;24.40;99.90
44990;DHT22;30723;51.206;3.326;2022-11-12T11:01:35;24.60;99.90
44990;DHT22;30723;51.206;3.326;2022-11-12T11:04:01;24.40;99.90
44990;DHT22;30723;51.206;3.326;2022-11-12T11:06:27;24.50;99.90
44990;DHT22;30723;51.206;3.326;2022-11-12T11:09:08;24.70;99.90
44990;DHT22;30723;51.206;3.326;2022-11-12T11:11:49;24.70;99.90
44990;DHT22;30723;51.206;3.326;2022-11-12T11:17:03;25.20;99.90
44990;DHT22;30723;51.206;3.326;2022-11-12T11:19:41;25.40;99.90
44990;DHT22;30723;51.206;3.326;2022-11-12T11:22:16;24.60;99.50
44990;DHT22;30723;51.206;3.326;2022-11-12T11:25:32;24.30;99.90
44990;DHT22;30723;51.206;3.326;2022-11-12T11:27:59;23.60;99.90
44990;DHT22;30723;51.206;3.326;2022-11-12T11:30:26;22.60;99.90
44990;DHT22;30723;51.206;3.326;2022-11-12T11:35:42;21.90;99.90
44990;DHT22;30723;51.206;3.326;2022-11-12T11:38:34;21.70;99.90
44990;DHT22;30723;51.206;3.326;2022-11-12T11:44:09;22.00;99.90
44990;DHT22;30723;51.206;3.326;2022-11-12T11:47:02;22.70;99.90
44990;DHT22;30723;51.206;3.326;2022-11-12T11:55:27;23.50;99.90
44990;DHT22;30723;51.206;3.326;2022-11-12T12:00:33;23.50;99.90
44990;DHT22;30723;51.206;3.326;2022-11-12T12:03:30;23.80;99.90
44990;DHT22;30723;51.206;3.326;2022-11-12T12:06:24;24.10;99.90
44990;DHT22;30723;51.206;3.326;2022-11-12T12:09:06;24.30;99.90
44990;DHT22;30723;51.206;3.326;2022-11-12T12:11:51;25.40;99.90
44990;DHT22;30723;51.206;3.326;2022-11-12T12:17:41;26.10;97.20
44990;DHT22;30723;51.206;3.326;2022-11-12T12:25:47;24.70;98.40
44990;DHT22;30723;51.206;3.326;2022-11-12T12:28:16;24.70;98.80
44990;DHT22;30723;51.206;3.326;2022-11-12T12:30:44;24.50;99.50
44990;DHT22;30723;51.206;3.326;2022-11-12T12:36:16;24.70;98.60
44990;DHT22;30723;51.206;3.326;2022-11-12T12:38:47;24.60;98.60
44990;DHT22;30723;51.206;3.326;2022-11-12T12:41:29;24.90;98.80
44990;DHT22;30723;51.206;3.326;2022-11-12T12:44:05;25.70;97.70
44990;DHT22;30723;51.206;3.326;2022-11-12T12:46:36;25.50;97.50
44990;DHT22;30723;51.206;3.326;2022-11-12T12:49:04;25.60;96.80
44990;DHT22;30723;51.206;3.326;2022-11-12T12:51:32;25.50;96.70
44990;DHT22;30723;51.206;3.326;2022-11-12T12:53:58;25.30;96.90
44990;DHT22;30723;51.206;3.326;2022-11-12T12:58:57;24.90;97.20
44990;DHT22;30723;51.206;3.326;2022-11-12T13:01:31;24.80;97.60
44990;DHT22;30723;51.206;3.326;2022-11-12T13:09:05;22.90;99.40
44990;DHT22;30723;51.206;3.326;2022-11-12T13:17:03;19.20;99.90
44990;DHT22;30723;51.206;3.326;2022-11-12T13:20:35;18.40;99.90
44990;DHT22;30723;51.206;3.326;2022-11-12T13:22:48;17.80;99.90
44990;DHT22;30723;51.206;3.326;2022-11-12T13:37:54;15.60;99.90
44990;DHT22;30723;51.206;3.326;2022-11-12T13:48:31;14.80;99.90
44990;DHT22;30723;51.206;3.326;2022-11-12T13:51:10;14.70;99.90
44990;DHT22;30723;51.206;3.326;2022-11-12T13:53:37;14.50;99.90
44990;DHT22;30723;51.206;3.326;2022-11-12T13:56:03;14.50;99.90
44990;DHT22;30723;51.206;3.326;2022-11-12T13:58:34;14.40;99.90
44990;DHT22;30723;51.206;3.326;2022-11-12T14:01:03;14.30;99.90
44990;DHT22;30723;51.206;3.326;2022-11-12T14:03:50;14.30;99.90
44990;DHT22;30723;51.206;3.326;2022-11-12T14:06:27;14.10;99.90
44990;DHT22;30723;51.206;3.326;2022-11-12T14:09:08;14.00;99.90
44990;DHT22;30723;51.206;3.326;2022-11-12T14:14:21;13.80;99.90
44990;DHT22;30723;51.206;3.326;2022-11-12T14:17:27;13.70;99.90
44990;DHT22;30723;51.206;3.326;2022-11-12T14:20:33;13.60;99.90
44990;DHT22;30723;51.206;3.326;2022-11-12T14:25:49;13.30;99.90
44990;DHT22;30723;51.206;3.326;2022-11-12T14:28:35;13.10;99.90
44990;DHT22;30723;51.206;3.326;2022-11-12T14:31:12;13.00;99.90
44990;DHT22;30723;51.206;3.326;2022-11-12T14:33:38;12.90;99.90
44990;DHT22;30723;51.206;3.326;2022-11-12T14:36:14;12.80;99.90
44990;DHT22;30723;51.206;3.326;2022-11-12T14:41:19;12.70;99.90
44990;DHT22;30723;51.206;3.326;2022-11-12T14:43:50;12.60;99.90
44990;DHT22;30723;51.206;3.326;2022-11-12T14:46:25;12.60;99.90
44990;DHT22;30723;51.206;3.326;2022-11-12T14:52:28;12.80;99.90
44990;DHT22;30723;51.206;3.326;2022-11-12T14:54:58;12.70;99.90
44990;DHT22;30723;51.206;3.326;2022-11-12T14:57:27;12.60;99.90
44990;DHT22;30723;51.206;3.326;2022-11-12T14:59:54;12.70;99.90
44990;DHT22;30723;51.206;3.326;2022-11-12T15:02:26;12.70;99.90
44990;DHT22;30723;51.206;3.326;2022-11-12T15:05:10;12.60;99.90
44990;DHT22;30723;51.206;3.326;2022-11-12T15:10:39;12.40;99.90
44990;DHT22;30723;51.206;3.326;2022-11-12T15:13:12;12.40;99.90
44990;DHT22;30723;51.206;3.326;2022-11-12T15:15:53;12.20;99.90
44990;DHT22;30723;51.206;3.326;2022-11-12T15:18:26;12.10;99.90
44990;DHT22;30723;51.206;3.326;2022-11-12T15:23:51;12.00;99.90
44990;DHT22;30723;51.206;3.326;2022-11-12T15:26:34;11.90;99.90
44990;DHT22;30723;51.206;3.326;2022-11-12T15:39:46;11.90;99.90
44990;DHT22;30723;51.206;3.326;2022-11-12T15:42:59;11.80;99.90
44990;DHT22;30723;51.206;3.326;2022-11-12T15:47:38;11.70;99.90
44990;DHT22;30723;51.206;3.326;2022-11-12T15:50:18;11.70;99.90
44990;DHT22;30723;51.206;3.326;2022-11-12T15:52:46;11.60;99.90
44990;DHT22;30723;51.206;3.326;2022-11-12T15:55:12;11.50;99.90
44990;DHT22;30723;51.206;3.326;2022-11-12T15:57:44;11.40;99.90
44990;DHT22;30723;51.206;3.326;2022-11-12T16:00:21;11.40;99.90
44990;DHT22;30723;51.206;3.326;2022-11-12T16:02:55;11.30;99.90
44990;DHT22;30723;51.206;3.326;2022-11-12T16:05:21;11.30;99.90
44990;DHT22;30723;51.206;3.326;2022-11-12T16:07:46;11.20;99.90
44990;DHT22;30723;51.206;3.326;2022-11-12T16:10:14;11.30;99.90
44990;DHT22;30723;51.206;3.326;2022-11-12T16:12:41;11.30;99.90
44990;DHT22;30723;51.206;3.326;2022-11-12T16:15:17;11.30;99.90
44990;DHT22;30723;51.206;3.326;2022-11-12T16:17:46;11.30;99.90
44990;DHT22;30723;51.206;3.326;2022-11-12T16:22:41;11.30;99.90
44990;DHT22;30723;51.206;3.326;2022-11-12T16:25:08;11.40;99.90
44990;DHT22;30723;51.206;3.326;2022-11-12T16:27:35;11.20;99.90
44990;DHT22;30723;51.206;3.326;2022-11-12T16:30:03;11.20;99.90
44990;DHT22;30723;51.206;3.326;2022-11-12T16:32:29;11.10;99.90
44990;DHT22;30723;51.206;3.326;2022-11-12T16:34:55;11.10;99.90
44990;DHT22;30723;51.206;3.326;2022-11-12T16:37:20;11.20;99.90
44990;DHT22;30723;51.206;3.326;2022-11-12T16:39:46;11.20;99.90
44990;DHT22;30723;51.206;3.326;2022-11-12T16:42:13;11.10;99.90
44990;DHT22;30723;51.206;3.326;2022-11-12T16:44:39;11.10;99.90
44990;DHT22;30723;51.206;3.326;2022-11-12T16:47:05;11.00;99.90
44990;DHT22;30723;51.206;3.326;2022-11-12T16:49:30;10.90;99.90
44990;DHT22;30723;51.206;3.326;2022-11-12T16:51:56;10.80;99.90
44990;DHT22;30723;51.206;3.326;2022-11-12T16:54:23;10.70;99.90
44990;DHT22;30723;51.206;3.326;2022-11-12T16:56:49;10.70;99.90
44990;DHT22;30723;51.206;3.326;2022-11-12T16:59:14;10.70;99.90
44990;DHT22;30723;51.206;3.326;2022-11-12T17:01:40;10.70;99.90
44990;DHT22;30723;51.206;3.326;2022-11-12T17:04:08;10.70;99.90
44990;DHT22;30723;51.206;3.326;2022-11-12T17:06:37;10.70;99.90
44990;DHT22;30723;51.206;3.326;2022-11-12T17:09:07;10.50;99.90
44990;DHT22;30723;51.206;3.326;2022-11-12T17:11:35;10.50;99.90
44990;DHT22;30723;51.206;3.326;2022-11-12T17:14:03;10.50;99.90
44990;DHT22;30723;51.206;3.326;2022-11-12T17:16:30;10.50;99.90
44990;DHT22;30723;51.206;3.326;2022-11-12T17:18:57;10.50;99.90
44990;DHT22;30723;51.206;3.326;2022-11-12T17:21:23;10.40;99.90
44990;DHT22;30723;51.206;3.326;2022-11-12T17:23:49;10.40;99.90
44990;DHT22;30723;51.206;3.326;2022-11-12T17:26:18;10.40;99.90
44990;DHT22;30723;51.206;3.326;2022-11-12T17:28:44;10.40;99.90
44990;DHT22;30723;51.206;3.326;2022-11-12T17:31:15;10.30;99.90
44990;DHT22;30723;51.206;3.326;2022-11-12T17:33:43;10.30;99.90
44990;DHT22;30723;51.206;3.326;2022-11-12T17:36:11;10.30;99.90
44990;DHT22;30723;51.206;3.326;2022-11-12T17:38:38;10.30;99.90
44990;DHT22;30723;51.206;3.326;2022-11-12T17:41:05;10.20;99.90
44990;DHT22;30723;51.206;3.326;2022-11-12T17:43:31;10.10;99.90
44990;DHT22;30723;51.206;3.326;2022-11-12T17:45:57;10.10;99.90
44990;DHT22;30723;51.206;3.326;2022-11-12T17:48:24;10.10;99.90
44990;DHT22;30723;51.206;3.326;2022-11-12T17:50:52;10.10;99.90
44990;DHT22;30723;51.206;3.326;2022-11-12T17:53:28;10.10;99.90
44990;DHT22;30723;51.206;3.326;2022-11-12T17:55:57;10.00;99.90
44990;DHT22;30723;51.206;3.326;2022-11-12T17:58:23;10.00;99.90
44990;DHT22;30723;51.206;3.326;2022-11-12T18:00:50;10.00;99.90
44990;DHT22;30723;51.206;3.326;2022-11-12T18:03:17;9.90;99.90